createdAt,value
2022-09-01T00:02:08.760Z,6.95
2022-09-01T00:04:39.949Z,7.32
2022-09-01T00:07:11.205Z,6.90
2022-09-01T00:10:04.825Z,7.15
2022-09-01T00:12:33.071Z,6.80
2022-09-01T00:15:10.166Z,6.88
2022-09-01T00:17:48.520Z,6.60
2022-09-01T00:20:20.888Z,7.20
2022-09-01T00:22:52.206Z,7.15
2022-09-01T00:25:21.019Z,6.35
2022-09-01T00:27:51.945Z,7.00
2022-09-01T00:30:26.355Z,7.20
2022-09-01T00:32:57.055Z,6.97
2022-09-01T00:35:26.700Z,6.38
2022-09-01T00:37:56.999Z,6.75
2022-09-01T00:40:25.238Z,6.13
2022-09-01T00:42:54.132Z,6.40
2022-09-01T00:45:24.479Z,6.25
2022-09-01T00:47:51.774Z,6.75
2022-09-01T00:50:29.815Z,6.70
2022-09-01T00:52:58.645Z,6.45
2022-09-01T00:55:42.566Z,6.35
2022-09-01T00:58:19.442Z,6.53
2022-09-01T01:00:57.494Z,6.78
2022-09-01T01:03:27.365Z,7.35
2022-09-01T01:05:58.542Z,6.78
2022-09-01T01:08:39.855Z,6.63
2022-09-01T01:11:19.526Z,6.30
2022-09-01T01:14:24.705Z,6.80
2022-09-01T01:16:52.241Z,6.90
2022-09-01T01:20:04.199Z,7.13
2022-09-01T01:23:08.726Z,7.35
2022-09-01T01:25:59.905Z,7.53
2022-09-01T01:28:40.110Z,7.78
2022-09-01T01:34:09.455Z,8.13
2022-09-01T01:36:40.204Z,7.70
2022-09-01T01:39:15.780Z,7.18
2022-09-01T01:41:50.184Z,7.28
2022-09-01T01:44:23.480Z,7.50
2022-09-01T01:47:07.839Z,7.10
2022-09-01T01:49:40.935Z,7.03
2022-09-01T01:52:15.429Z,7.22
2022-09-01T01:54:46.835Z,7.53
2022-09-01T01:57:17.416Z,7.20
2022-09-01T01:59:53.421Z,7.65
2022-09-01T02:02:22.193Z,7.00
2022-09-01T02:07:39.329Z,7.00
2022-09-01T02:10:10.263Z,6.80
2022-09-01T02:12:41.834Z,6.60
2022-09-01T02:15:22.955Z,6.53
2022-09-01T02:18:00.280Z,6.65
2022-09-01T02:20:34.854Z,6.68
2022-09-01T02:23:10.159Z,6.60
2022-09-01T02:26:12.012Z,6.30
2022-09-01T02:28:43.511Z,6.28
2022-09-01T02:31:12.907Z,6.53
2022-09-01T02:33:48.351Z,6.38
2022-09-01T02:36:23.824Z,6.53
2022-09-01T02:39:12.205Z,5.93
2022-09-01T02:41:49.145Z,6.57
2022-09-01T02:44:41.463Z,6.13
2022-09-01T02:47:10.268Z,6.55
2022-09-01T02:49:47.990Z,6.13
2022-09-01T02:52:19.399Z,6.38
2022-09-01T02:54:53.734Z,6.35
2022-09-01T02:57:25.541Z,6.32
2022-09-01T02:59:53.950Z,6.60
2022-09-01T03:02:33.111Z,6.13
2022-09-01T03:07:50.520Z,7.00
2022-09-01T03:10:22.685Z,6.32
2022-09-01T03:13:09.404Z,6.68
2022-09-01T03:15:38.744Z,7.32
2022-09-01T03:18:10.169Z,7.10
2022-09-01T03:20:52.045Z,6.80
2022-09-01T03:23:21.654Z,7.50
2022-09-01T03:25:49.989Z,7.65
2022-09-01T03:28:20.190Z,7.55
2022-09-01T03:30:51.800Z,7.07
2022-09-01T03:33:21.310Z,7.65
2022-09-01T03:35:51.901Z,7.40
2022-09-01T03:38:22.160Z,7.70
2022-09-01T03:40:54.469Z,7.47
2022-09-01T03:43:35.830Z,7.00
2022-09-01T03:46:05.928Z,7.03
2022-09-01T03:48:35.935Z,6.93
2022-09-01T03:51:07.011Z,8.02
2022-09-01T03:53:41.825Z,7.50
2022-09-01T03:56:12.254Z,7.45
2022-09-01T03:58:50.390Z,7.32
2022-09-01T04:01:22.950Z,7.72
2022-09-01T04:03:55.204Z,7.65
2022-09-01T04:06:27.680Z,7.68
2022-09-01T04:09:05.395Z,7.68
2022-09-01T04:11:54.991Z,6.80
2022-09-01T04:14:29.219Z,7.78
2022-09-01T04:17:30.374Z,8.18
2022-09-01T04:20:11.318Z,8.55
2022-09-01T04:22:39.444Z,7.90
2022-09-01T04:25:19.624Z,7.47
2022-09-01T04:27:49.005Z,8.20
2022-09-01T04:30:20.602Z,7.00
2022-09-01T04:32:48.050Z,6.72
2022-09-01T04:35:17.886Z,5.75
2022-09-01T04:37:49.399Z,5.68
2022-09-01T04:40:25.876Z,5.70
2022-09-01T04:42:57.535Z,5.28
2022-09-01T04:45:27.942Z,5.07
2022-09-01T04:47:58.401Z,5.25
2022-09-01T04:50:32.320Z,5.13
2022-09-01T04:53:07.273Z,5.25
2022-09-01T04:55:46.279Z,5.05
2022-09-01T04:58:28.664Z,5.25
2022-09-01T05:01:04.994Z,5.28
2022-09-01T05:03:38.310Z,4.75
2022-09-01T05:06:25.210Z,5.47
2022-09-01T05:08:55.724Z,5.35
2022-09-01T05:11:31.005Z,5.50
2022-09-01T05:13:59.479Z,4.90
2022-09-01T05:16:28.285Z,5.50
2022-09-01T05:19:35.030Z,5.53
2022-09-01T05:22:08.440Z,5.90
2022-09-01T05:24:41.787Z,5.68
2022-09-01T05:27:15.739Z,5.72
2022-09-01T05:29:49.445Z,5.80
2022-09-01T05:32:18.162Z,6.00
2022-09-01T05:34:54.681Z,6.23
2022-09-01T05:37:24.930Z,5.97
2022-09-01T05:39:55.695Z,5.80
2022-09-01T05:42:24.430Z,6.43
2022-09-01T05:45:01.556Z,6.22
2022-09-01T05:47:31.940Z,6.03
2022-09-01T05:50:03.535Z,6.18
2022-09-01T05:52:48.335Z,6.47
2022-09-01T05:55:15.471Z,6.40
2022-09-01T05:57:49.785Z,6.60
2022-09-01T06:00:18.403Z,6.60
2022-09-01T06:02:52.734Z,6.40
2022-09-01T06:05:23.894Z,6.35
2022-09-01T06:07:52.865Z,7.72
2022-09-01T06:10:21.525Z,5.70
2022-09-01T06:12:54.481Z,5.20
2022-09-01T06:15:25.399Z,5.15
2022-09-01T06:17:53.394Z,6.60
2022-09-01T06:20:23.287Z,6.35
2022-09-01T06:23:17.840Z,5.78
2022-09-01T06:25:49.016Z,5.78
2022-09-01T06:28:23.961Z,5.97
2022-09-01T06:30:52.016Z,5.93
2022-09-01T06:33:27.161Z,5.85
2022-09-01T06:35:57.395Z,5.28
2022-09-01T06:38:27.737Z,5.80
2022-09-01T06:41:05.027Z,5.07
2022-09-01T06:43:34.928Z,5.10
2022-09-01T06:46:03.791Z,5.22
2022-09-01T06:48:34.631Z,4.32
2022-09-01T06:51:18.445Z,4.68
2022-09-01T06:54:01.740Z,4.78
2022-09-01T06:56:44.690Z,4.93
2022-09-01T06:59:32.553Z,5.10
2022-09-01T07:02:17.816Z,4.50
2022-09-01T07:04:46.576Z,4.45
2022-09-01T07:10:18.293Z,4.38
2022-09-01T07:13:06.882Z,4.70
2022-09-01T07:18:36.536Z,3.75
2022-09-01T07:21:41.736Z,3.90
2022-09-01T07:24:15.322Z,4.25
2022-09-01T07:26:47.282Z,4.60
2022-09-01T07:29:17.733Z,4.28
2022-09-01T07:32:43.961Z,4.35
2022-09-01T07:34:47.707Z,3.90
2022-09-01T07:43:28.273Z,3.70
2022-09-01T07:46:00.561Z,4.10
2022-09-01T07:49:02.608Z,3.85
2022-09-01T07:51:38.365Z,3.30
2022-09-01T07:54:14.431Z,3.33
2022-09-01T07:56:44.375Z,3.10
2022-09-01T07:59:15.851Z,3.45
2022-09-01T08:01:44.170Z,3.28
2022-09-01T08:04:14.146Z,3.38
2022-09-01T08:06:51.802Z,3.50
2022-09-01T08:09:37.638Z,4.00
2022-09-01T08:12:16.030Z,3.33
2022-09-01T08:14:46.495Z,3.17
2022-09-01T08:17:18.348Z,2.92
2022-09-01T08:20:03.064Z,2.88
2022-09-01T08:22:32.634Z,3.30
2022-09-01T08:25:05.425Z,3.28
2022-09-01T08:27:39.025Z,3.30
2022-09-01T08:30:13.550Z,3.10
2022-09-01T08:32:43.705Z,3.03
2022-09-01T08:35:19.079Z,2.95
2022-09-01T08:37:46.406Z,2.97
2022-09-01T08:40:27.355Z,3.08
2022-09-01T08:43:17.538Z,3.65
2022-09-01T08:46:05.467Z,3.55
2022-09-01T08:49:24.290Z,3.50
2022-09-01T08:52:15.329Z,3.45
2022-09-01T08:55:30.120Z,3.42
2022-09-01T08:58:10.209Z,2.95
2022-09-01T09:00:48.285Z,3.40
2022-09-01T09:03:44.121Z,3.38
2022-09-01T09:09:59.782Z,3.00
2022-09-01T09:13:25.028Z,2.78
2022-09-01T09:16:19.279Z,3.13
2022-09-01T09:19:12.217Z,3.17
2022-09-01T09:21:47.684Z,2.92
2022-09-01T09:24:39.334Z,3.03
2022-09-01T09:27:43.072Z,3.30
2022-09-01T09:30:32.319Z,3.10
2022-09-01T09:35:59.897Z,3.03
2022-09-01T09:38:34.062Z,3.65
2022-09-01T09:41:27.133Z,2.88
2022-09-01T09:44:39.295Z,3.03
2022-09-01T09:47:27.283Z,2.83
2022-09-01T09:50:34.967Z,3.00
2022-09-01T09:53:35.913Z,3.13
2022-09-01T09:56:25.982Z,2.90
2022-09-01T09:58:55.972Z,3.00
2022-09-01T10:01:35.002Z,2.85
2022-09-01T10:04:05.503Z,2.88
2022-09-01T10:06:50.158Z,3.03
2022-09-01T10:09:27.272Z,3.58
2022-09-01T10:12:11.672Z,3.10
2022-09-01T10:14:53.712Z,2.85
2022-09-01T10:17:45.503Z,3.10
2022-09-01T10:20:27.912Z,2.80
2022-09-01T10:22:56.922Z,2.60
2022-09-01T10:28:37.387Z,2.95
2022-09-01T10:31:20.800Z,3.40
2022-09-01T10:33:52.652Z,3.13
2022-09-01T10:36:24.414Z,3.33
2022-09-01T10:38:59.960Z,3.05
2022-09-01T10:42:09.382Z,3.78
2022-09-01T10:44:59.062Z,3.15
2022-09-01T10:47:34.491Z,2.97
2022-09-01T10:50:24.237Z,3.25
2022-09-01T10:52:59.232Z,4.13
2022-09-01T10:55:50.462Z,7.47
2022-09-01T10:59:37.412Z,3.63
2022-09-01T11:02:25.014Z,4.07
2022-09-01T11:08:01.766Z,3.40
2022-09-01T11:10:57.119Z,3.42
2022-09-01T11:13:57.852Z,3.28
2022-09-01T11:16:50.248Z,3.40
2022-09-01T11:19:48.203Z,6.32
2022-09-01T11:22:58.091Z,3.10
2022-09-01T11:26:18.560Z,3.20
2022-09-01T11:28:44.319Z,3.53
2022-09-01T11:31:18.630Z,3.65
2022-09-01T11:34:21.181Z,3.40
2022-09-01T11:37:04.376Z,3.10
2022-09-01T11:39:47.076Z,3.13
2022-09-01T11:42:55.361Z,2.80
2022-09-01T11:45:37.769Z,2.80
2022-09-01T11:48:18.787Z,3.05
2022-09-01T11:51:04.662Z,2.75
2022-09-01T11:53:40.698Z,2.63
2022-09-01T11:56:28.541Z,2.90
2022-09-01T11:58:59.662Z,2.80
2022-09-01T12:01:41.696Z,2.50
2022-09-01T12:04:32.736Z,2.60
2022-09-01T12:07:15.302Z,2.70
2022-09-01T12:09:54.972Z,2.47
2022-09-01T12:12:42.071Z,2.30
2022-09-01T12:15:27.564Z,2.60
2022-09-01T12:18:13.841Z,2.30
2022-09-01T12:20:50.783Z,2.67
2022-09-01T12:23:35.201Z,2.20
2022-09-01T12:26:18.236Z,2.33
2022-09-01T12:28:49.886Z,2.10
2022-09-01T12:31:24.373Z,2.55
2022-09-01T12:34:05.042Z,2.63
2022-09-01T12:36:37.608Z,2.40
2022-09-01T12:39:25.976Z,2.17
2022-09-01T12:42:13.696Z,2.55
2022-09-01T12:45:00.557Z,2.40
2022-09-01T12:47:42.262Z,2.38
2022-09-01T12:50:37.521Z,2.50
2022-09-01T12:53:16.083Z,2.17
2022-09-01T12:56:20.005Z,1.98
2022-09-01T12:58:56.573Z,2.35
2022-09-01T13:01:40.664Z,2.45
2022-09-01T13:04:40.292Z,2.17
2022-09-01T13:07:18.047Z,2.13
2022-09-01T13:09:48.008Z,2.42
2022-09-01T13:12:29.942Z,2.00
2022-09-01T13:15:00.611Z,2.03
2022-09-01T13:17:37.617Z,2.30
2022-09-01T13:20:13.032Z,2.13
2022-09-01T13:22:42.586Z,2.20
2022-09-01T13:25:13.581Z,2.30
2022-09-01T13:27:48.198Z,2.28
2022-09-01T13:30:22.323Z,1.80
2022-09-01T13:35:42.745Z,1.80
2022-09-01T13:38:16.344Z,1.98
2022-09-01T13:40:47.404Z,1.90
2022-09-01T13:43:23.005Z,2.28
2022-09-01T13:45:51.911Z,2.10
2022-09-01T13:48:21.976Z,2.10
2022-09-01T13:53:46.376Z,1.98
2022-09-01T13:56:24.216Z,2.17
2022-09-01T13:59:01.237Z,1.98
2022-09-01T14:01:31.842Z,2.15
2022-09-01T14:04:03.179Z,1.95
2022-09-01T14:06:52.512Z,2.20
2022-09-01T14:09:21.201Z,2.08
2022-09-01T14:12:02.096Z,2.33
2022-09-01T14:17:20.957Z,2.40
2022-09-01T14:20:01.051Z,2.00
2022-09-01T14:22:38.750Z,2.40
2022-09-01T14:25:11.079Z,2.03
2022-09-01T14:27:42.542Z,2.05
2022-09-01T14:30:35.757Z,2.30
2022-09-01T14:33:09.984Z,2.30
2022-09-01T14:35:55.537Z,2.20
2022-09-01T14:38:26.753Z,2.40
2022-09-01T14:40:54.039Z,2.38
2022-09-01T14:43:27.018Z,2.38
2022-09-01T14:46:10.961Z,2.45
2022-09-01T14:48:51.911Z,2.28
2022-09-01T14:54:42.581Z,1.90
2022-09-01T14:57:36.877Z,1.90
2022-09-01T15:00:02.732Z,2.10
2022-09-01T15:02:33.541Z,2.10
2022-09-01T15:05:06.478Z,2.08
2022-09-01T15:07:36.761Z,1.83
2022-09-01T15:10:11.421Z,1.95
2022-09-01T15:12:44.911Z,1.80
2022-09-01T15:15:15.417Z,1.88
2022-09-01T15:17:46.957Z,2.05
2022-09-01T15:20:37.204Z,2.00
2022-09-01T15:23:16.661Z,1.98
2022-09-01T15:25:55.429Z,1.80
2022-09-01T15:28:25.997Z,1.70
2022-09-01T15:30:57.075Z,1.50
2022-09-01T15:33:26.746Z,2.10
2022-09-01T15:35:56.982Z,1.83
2022-09-01T15:38:30.463Z,2.05
2022-09-01T15:41:02.956Z,1.75
2022-09-01T15:43:40.179Z,2.55
2022-09-01T15:46:11.718Z,1.63
2022-09-01T15:48:44.981Z,1.80
2022-09-01T15:51:45.817Z,1.80
2022-09-01T15:54:22.039Z,1.75
2022-09-01T15:56:50.439Z,1.92
2022-09-01T15:59:20.580Z,1.73
2022-09-01T16:02:05.713Z,2.05
2022-09-01T16:04:34.697Z,1.80
2022-09-01T16:07:06.967Z,1.67
2022-09-01T16:09:45.347Z,1.80
2022-09-01T16:12:15.852Z,1.98
2022-09-01T16:14:53.037Z,1.88
2022-09-01T16:17:48.312Z,1.60
2022-09-01T16:20:36.333Z,1.60
2022-09-01T16:23:43.011Z,1.70
2022-09-01T16:26:12.443Z,1.70
2022-09-01T16:28:43.002Z,2.00
2022-09-01T16:31:25.623Z,1.60
2022-09-01T16:34:05.775Z,1.88
2022-09-01T16:37:08.162Z,1.75
2022-09-01T16:40:15.401Z,1.75
2022-09-01T16:42:58.203Z,1.50
2022-09-01T16:45:56.773Z,1.90
2022-09-01T16:49:14.907Z,2.33
2022-09-01T16:52:21.253Z,2.10
2022-09-01T16:55:25.845Z,1.90
2022-09-01T16:58:32.238Z,1.90
2022-09-01T17:01:40.737Z,2.03
2022-09-01T17:04:34.943Z,2.08
2022-09-01T17:07:39.233Z,1.83
2022-09-01T17:10:52.364Z,2.08
2022-09-01T17:13:25.512Z,1.80
2022-09-01T17:16:24.478Z,2.17
2022-09-01T17:19:01.012Z,1.90
2022-09-01T17:22:03.761Z,1.90
2022-09-01T17:24:47.084Z,1.65
2022-09-01T17:27:18.532Z,1.50
2022-09-01T17:29:53.571Z,1.55
2022-09-01T17:32:51.714Z,1.70
2022-09-01T17:35:52.456Z,1.42
2022-09-01T17:38:57.482Z,1.88
2022-09-01T17:42:01.100Z,1.50
2022-09-01T17:45:08.458Z,1.48
2022-09-01T17:48:19.886Z,1.70
2022-09-01T17:51:29.017Z,1.75
2022-09-01T17:54:29.604Z,1.63
2022-09-01T17:57:14.937Z,1.63
2022-09-01T18:00:06.708Z,1.60
2022-09-01T18:02:59.282Z,1.52
2022-09-01T18:05:31.271Z,1.63
2022-09-01T18:08:36.444Z,1.70
2022-09-01T18:11:33.960Z,1.70
2022-09-01T18:14:39.702Z,1.75
2022-09-01T18:17:43.719Z,1.63
2022-09-01T18:20:49.252Z,1.83
2022-09-01T18:23:19.737Z,1.60
2022-09-01T18:26:32.062Z,2.10
2022-09-01T18:29:06.567Z,1.55
2022-09-01T18:31:58.109Z,1.90
2022-09-01T18:34:57.814Z,1.90
2022-09-01T18:38:01.624Z,1.80
2022-09-01T18:40:55.862Z,1.73
2022-09-01T18:43:47.590Z,1.67
2022-09-01T18:46:49.500Z,1.90
2022-09-01T18:49:56.388Z,1.90
2022-09-01T18:52:59.289Z,1.80
2022-09-01T18:55:44.422Z,1.90
2022-09-01T18:58:40.452Z,1.73
2022-09-01T19:01:14.229Z,1.85
2022-09-01T19:04:27.727Z,1.60
2022-09-01T19:07:27.869Z,1.85
2022-09-01T19:10:05.128Z,1.85
2022-09-01T19:13:14.649Z,1.80
2022-09-01T19:16:09.165Z,1.75
2022-09-01T19:19:06.383Z,1.70
2022-09-01T19:21:40.617Z,2.00
2022-09-01T19:24:48.873Z,1.75
2022-09-01T19:27:25.394Z,1.88
2022-09-01T19:29:59.547Z,1.90
2022-09-01T19:32:36.337Z,1.70
2022-09-01T19:35:29.607Z,1.60
2022-09-01T19:37:59.912Z,1.77
2022-09-01T19:40:36.390Z,1.90
2022-09-01T19:43:15.758Z,2.20
2022-09-01T19:46:24.226Z,1.83
2022-09-01T19:49:32.139Z,1.70
2022-09-01T19:52:25.227Z,1.85
2022-09-01T19:55:33.839Z,1.60
2022-09-01T19:58:14.642Z,1.48
2022-09-01T20:01:06.038Z,1.90
2022-09-01T20:04:04.306Z,2.03
2022-09-01T20:06:46.507Z,1.70
2022-09-01T20:10:04.341Z,1.98
2022-09-01T20:13:19.402Z,2.03
2022-09-01T20:16:27.087Z,1.80
2022-09-01T20:19:34.170Z,1.50
2022-09-01T20:22:42.651Z,1.80
2022-09-01T20:25:17.272Z,1.70
2022-09-01T20:28:43.681Z,2.05
2022-09-01T20:31:37.107Z,1.85
2022-09-01T20:34:50.142Z,1.80
2022-09-01T20:37:52.169Z,1.95
2022-09-01T20:40:53.058Z,1.80
2022-09-01T20:43:31.679Z,2.00
2022-09-01T20:46:00.209Z,1.83
2022-09-01T20:48:31.112Z,1.60
2022-09-01T20:51:36.057Z,1.88
2022-09-01T20:55:01.893Z,1.80
2022-09-01T20:58:23.416Z,1.92
2022-09-01T21:01:27.381Z,1.98
2022-09-01T21:07:34.775Z,2.17
2022-09-01T21:10:42.238Z,1.88
2022-09-01T21:13:46.254Z,1.60
2022-09-01T21:16:37.673Z,1.90
2022-09-01T21:19:40.792Z,1.98
2022-09-01T21:22:25.198Z,1.73
2022-09-01T21:25:02.292Z,2.00
2022-09-01T21:27:53.250Z,2.05
2022-09-01T21:30:26.300Z,2.00
2022-09-01T21:33:00.369Z,2.00
2022-09-01T21:35:31.706Z,2.10
2022-09-01T21:38:02.722Z,1.98
2022-09-01T21:40:31.306Z,1.80
2022-09-01T21:43:31.286Z,1.70
2022-09-01T21:46:25.707Z,1.98
2022-09-01T21:48:55.192Z,2.08
2022-09-01T21:51:22.267Z,1.73
2022-09-01T21:54:13.182Z,2.20
2022-09-01T21:56:41.527Z,1.80
2022-09-01T21:59:13.338Z,1.90
2022-09-01T22:01:44.091Z,1.95
2022-09-01T22:04:19.758Z,1.83
2022-09-01T22:06:47.369Z,1.98
2022-09-01T22:09:21.091Z,1.88
2022-09-01T22:12:00.437Z,1.95
2022-09-01T22:14:32.566Z,2.20
2022-09-01T22:17:04.160Z,2.53
2022-09-01T22:19:36.238Z,2.08
2022-09-01T22:22:07.933Z,2.00
2022-09-01T22:24:37.210Z,1.80
2022-09-01T22:27:05.733Z,2.15
2022-09-01T22:29:41.551Z,2.13
2022-09-01T22:32:10.546Z,2.17
2022-09-01T22:34:39.032Z,1.92
2022-09-01T22:37:12.368Z,2.03
2022-09-01T22:39:41.529Z,1.73
2022-09-01T22:42:17.432Z,1.75
2022-09-01T22:44:54.899Z,1.88
2022-09-01T22:47:25.004Z,1.90
2022-09-01T22:49:54.974Z,1.92
2022-09-01T22:52:25.578Z,2.35
2022-09-01T22:55:02.178Z,1.90
2022-09-01T22:57:29.891Z,2.10
2022-09-01T22:59:59.857Z,2.03
2022-09-01T23:02:34.307Z,1.75
2022-09-01T23:07:53.835Z,1.75
2022-09-01T23:10:27.737Z,1.75
2022-09-01T23:12:54.773Z,1.80
2022-09-01T23:15:31.889Z,2.15
2022-09-01T23:18:21.607Z,1.80
2022-09-01T23:20:51.047Z,2.00
2022-09-01T23:23:26.521Z,1.70
2022-09-01T23:25:56.060Z,1.90
2022-09-01T23:28:26.727Z,1.75
2022-09-01T23:30:57.424Z,2.00
2022-09-01T23:33:38.437Z,1.83
2022-09-01T23:36:31.172Z,2.08
2022-09-01T23:39:00.764Z,2.00
2022-09-01T23:41:34.868Z,1.98
2022-09-01T23:44:18.856Z,2.10
2022-09-01T23:47:07.322Z,2.15
2022-09-01T23:49:36.701Z,2.30
2022-09-01T23:52:09.332Z,2.15
2022-09-01T23:54:47.932Z,2.17
2022-09-01T23:57:19.149Z,2.03
2022-09-01T23:59:53.681Z,2.08
